Terminal Aerodrome Forecast
Issued by NWS

Home | Current Version | Previous Version | Text Only | Print | Product List | Glossary On
Versions: 1 2 3 4 5 6 7 8 9 10 11 12 13 14 15 16 17 18 19 20 21 22 23 24 25 26 27 28 29 30 31 32 33
000
FTUS44 KHGX 221120
TAFUTS
TAF
KUTS 221120Z 2212/2312 35004KT 1 1/2SM BR VCSH OVC002
      TEMPO 2212/2213 2SM -RA BR OVC004
     FM221500 34003KT 2SM BR OVC004
     FM221800 06004KT 4SM BR VCSH OVC005
     FM230000 VRB03KT 2SM BR VCSH OVC003
     FM230500 35003KT 1SM BR VCSH OVC002=

USA.gov is the U.S. government's official web portal to all federal, state and local government web resources and services.